Time;durP1;ratioP1;P1;durP2;ratioP2;P2;SDS_P1;SDS_P2;PMS_P1;PMS_P2;Temp;Humidity;BMP_temperature;BMP_pressure;BME280_temperature;BME280_humidity;BME280_pressure;Samples;Min_cycle;Max_cycle;Signal;HPM_P1;HPM_P2
2023/06/17 00:00:44;;;;;;;;;27.00;25.00;;;;;23.28;51.35;100489.86;112143;1263;18820;-39
2023/06/17 00:03:32;;;;;;;;;28.00;26.00;;;;;23.29;51.48;100486.70;112090;1263;22390;-39
2023/06/17 00:05:59;;;;;;;;;30.50;29.50;;;;;23.28;51.26;100480.90;112169;1263;21653;-39
2023/06/17 00:08:26;;;;;;;;;27.00;26.00;;;;;23.29;51.34;100479.57;112066;1263;18759;-40
2023/06/17 00:10:54;;;;;;;;;26.00;25.00;;;;;23.27;51.40;100478.54;112163;1263;20744;-39
2023/06/17 00:13:21;;;;;;;;;28.50;26.50;;;;;23.27;51.38;100473.75;112051;1263;21757;-39
2023/06/17 00:15:50;;;;;;;;;29.00;28.00;;;;;23.27;51.26;100468.86;112169;1263;20167;-38
2023/06/17 00:18:19;;;;;;;;;31.50;30.00;;;;;23.25;51.44;100474.78;112211;1263;20981;-37
2023/06/17 00:20:46;;;;;;;;;30.00;28.67;;;;;23.23;51.39;100478.41;112096;1263;21673;-41
2023/06/17 00:23:14;;;;;;;;;28.00;26.67;;;;;23.23;51.28;100473.29;112202;1248;21208;-39
2023/06/17 00:25:41;;;;;;;;;29.00;26.50;;;;;23.21;51.25;100470.38;112093;1263;19586;-39
2023/06/17 00:28:09;;;;;;;;;32.50;29.00;;;;;23.22;51.48;100470.77;112208;1263;20129;-37
2023/06/17 00:30:36;;;;;;;;;29.67;29.67;;;;;23.22;51.25;100467.48;112102;1263;20158;-38
2023/06/17 00:33:04;;;;;;;;;32.00;30.00;;;;;23.23;51.13;100465.60;112199;1263;19440;-39
2023/06/17 00:35:31;;;;;;;;;32.00;29.00;;;;;23.23;51.29;100462.31;112109;1263;21578;-38
2023/06/17 00:37:58;;;;;;;;;33.00;30.00;;;;;23.23;51.12;100460.37;112221;1263;18750;-39
2023/06/17 00:40:26;;;;;;;;;31.00;28.00;;;;;23.22;51.11;100457.98;112116;1257;19811;-39
2023/06/17 00:42:54;;;;;;;;;33.00;31.00;;;;;23.22;51.13;100454.82;112181;1254;23242;-39
2023/06/17 00:45:21;;;;;;;;;29.00;26.00;;;;;23.22;51.12;100455.54;112115;1254;18776;-39
2023/06/17 00:47:49;;;;;;;;;31.50;28.50;;;;;23.22;51.00;100456.76;112199;1263;19456;-39
2023/06/17 00:50:16;;;;;;;;;27.50;26.00;;;;;23.23;51.06;100453.27;112087;1263;20211;-39
2023/06/17 00:52:43;;;;;;;;;32.33;30.00;;;;;23.22;51.15;100453.47;112189;1263;21009;-38
2023/06/17 00:55:11;;;;;;;;;28.50;27.00;;;;;23.23;51.22;100455.95;112115;1262;20804;-39
2023/06/17 00:57:38;;;;;;;;;29.00;29.00;;;;;23.22;51.08;100451.70;111941;1263;21782;-38
2023/06/17 01:00:09;;;;;;;;;28.00;26.00;;;;;23.22;51.03;100449.89;112110;1263;18752;-38
2023/06/17 01:02:39;;;;;;;;;29.00;26.00;;;;;23.23;51.08;100454.90;112076;1262;19461;-38
2023/06/17 01:05:11;;;;;;;;;30.33;27.67;;;;;23.22;51.02;100451.91;112252;1262;19987;-37
2023/06/17 01:07:40;;;;;;;;;31.50;30.00;;;;;23.22;51.01;100452.80;112248;1263;18813;-38
2023/06/17 01:10:07;;;;;;;;;34.00;30.50;;;;;23.21;50.89;100454.65;112184;1255;21061;-38
2023/06/17 01:12:35;;;;;;;;;31.00;28.00;;;;;23.21;50.93;100452.20;112141;1247;21985;-38
2023/06/17 01:15:02;;;;;;;;;30.33;28.00;;;;;23.22;50.88;100455.41;112229;1257;18806;-39
2023/06/17 01:17:30;;;;;;;;;27.33;26.33;;;;;23.21;50.70;100458.56;112110;1247;20986;-39
2023/06/17 01:19:58;;;;;;;;;29.33;26.00;;;;;23.21;50.89;100460.79;112268;1263;21788;-39
2023/06/17 01:22:26;;;;;;;;;29.00;28.00;;;;;23.21;50.81;100458.77;112164;1247;19993;-39
2023/06/17 01:24:56;;;;;;;;;29.00;28.00;;;;;23.21;50.73;100456.04;112076;1257;21053;-39
2023/06/17 01:27:24;;;;;;;;;26.00;26.00;;;;;23.19;50.90;100450.91;112254;1262;21663;-39
2023/06/17 01:29:52;;;;;;;;;26.00;26.00;;;;;23.19;50.86;100449.05;112078;1263;20273;-39
2023/06/17 01:32:19;;;;;;;;;25.00;25.00;;;;;23.19;50.77;100451.23;112136;1263;20930;-39
2023/06/17 01:34:47;;;;;;;;;28.00;25.00;;;;;23.19;50.80;100452.88;112081;1247;21943;-38
2023/06/17 01:37:14;;;;;;;;;30.00;28.00;;;;;23.19;50.62;100450.95;112180;1263;19064;-39
2023/06/17 01:39:42;;;;;;;;;25.33;25.33;;;;;23.19;50.76;100450.44;112049;1263;21183;-39
2023/06/17 01:42:09;;;;;;;;;29.50;29.00;;;;;23.18;50.68;100445.58;112168;1247;21469;-39
2023/06/17 01:44:37;;;;;;;;;31.00;29.00;;;;;23.18;50.50;100446.23;112093;1248;20040;-40
2023/06/17 01:47:04;;;;;;;;;28.00;28.00;;;;;23.19;50.48;100444.42;112205;1262;20794;-38
2023/06/17 01:49:32;;;;;;;;;30.00;29.00;;;;;23.18;50.56;100446.73;112044;1248;22940;-39
2023/06/17 01:51:59;;;;;;;;;30.00;29.00;;;;;23.16;50.64;100441.23;112172;1263;19930;-39
2023/06/17 01:54:27;;;;;;;;;32.00;29.00;;;;;23.17;50.59;100443.59;112099;1263;21013;-39
2023/06/17 01:56:55;;;;;;;;;31.00;30.00;;;;;23.18;50.42;100442.55;112152;1263;21758;-39
2023/06/17 01:59:22;;;;;;;;;30.00;29.00;;;;;23.17;50.44;100441.02;112275;1262;20189;-39
2023/06/17 02:01:50;;;;;;;;;35.50;31.00;;;;;23.15;50.45;100434.47;112239;1263;21010;-39
2023/06/17 02:04:17;;;;;;;;;30.00;28.50;;;;;23.16;50.38;100436.23;112246;1262;20148;-41
2023/06/17 02:06:45;;;;;;;;;36.33;32.67;;;;;23.16;50.55;100438.92;112156;1263;20251;-39
2023/06/17 02:09:13;;;;;;;;;32.00;29.00;;;;;23.14;50.39;100437.36;112143;1263;21280;-39
2023/06/17 02:11:40;;;;;;;;;36.00;32.00;;;;;23.15;50.26;100438.33;112103;1262;23201;-39
2023/06/17 02:14:07;;;;;;;;;32.00;27.00;;;;;23.14;50.30;100433.15;112265;1263;19083;-40
2023/06/17 02:16:42;;;;;;;;;29.00;26.00;;;;;23.13;50.16;100436.73;112123;1263;19776;-40
2023/06/17 02:19:09;;;;;;;;;29.00;28.00;;;;;23.14;50.24;100441.60;112165;1263;21533;-40
2023/06/17 02:21:37;;;;;;;;;32.00;30.00;;;;;23.13;50.30;100440.77;112050;1263;18579;-39
2023/06/17 02:24:04;;;;;;;;;32.00;29.00;;;;;23.13;50.32;100439.27;112194;1263;19471;-40
2023/06/17 02:26:32;;;;;;;;;31.00;27.00;;;;;23.13;50.23;100448.21;112045;1248;22621;-39
2023/06/17 02:28:59;;;;;;;;;33.00;28.50;;;;;23.13;50.26;100446.95;112139;1263;19949;-39
2023/06/17 02:31:27;;;;;;;;;26.00;25.00;;;;;23.12;50.21;100443.48;112081;1263;21201;-39
2023/06/17 02:33:55;;;;;;;;;25.50;25.00;;;;;23.12;50.13;100444.21;112191;1254;21753;-40
2023/06/17 02:36:22;;;;;;;;;29.00;26.00;;;;;23.11;50.02;100444.64;112166;1263;18622;-40
2023/06/17 02:38:50;;;;;;;;;29.00;26.00;;;;;23.11;50.05;100443.76;112128;1247;20791;-39
2023/06/17 02:41:18;;;;;;;;;36.00;30.33;;;;;23.11;49.99;100445.77;112238;1263;20487;-39
2023/06/17 02:43:45;;;;;;;;;25.50;25.00;;;;;23.10;50.00;100445.36;112128;1263;19871;-39
2023/06/17 02:46:13;;;;;;;;;28.00;28.00;;;;;23.09;49.86;100449.31;112300;1263;19505;-40
2023/06/17 02:48:40;;;;;;;;;33.00;30.00;;;;;23.10;49.89;100452.08;112138;1263;20152;-39
2023/06/17 02:51:09;;;;;;;;;28.33;26.67;;;;;23.10;49.76;100448.98;112246;1257;20441;-39
2023/06/17 02:53:36;;;;;;;;;33.00;29.00;;;;;23.10;49.64;100452.51;112096;1263;20920;-39
2023/06/17 02:56:04;;;;;;;;;26.00;25.00;;;;;23.08;49.82;100449.60;112195;1247;21761;-40
2023/06/17 02:58:32;;;;;;;;;34.50;29.50;;;;;23.08;49.48;100448.72;112056;1247;18753;-40
2023/06/17 03:00:59;;;;;;;;;30.00;30.00;;;;;23.09;49.68;100451.70;112204;1262;19659;-46
2023/06/17 03:03:33;;;;;;;;;28.00;26.00;;;;;23.08;49.65;100457.42;112085;1263;21665;-40
2023/06/17 03:06:03;;;;;;;;;31.33;30.33;;;;;23.08;49.59;100460.02;112153;1263;19878;-39
2023/06/17 03:08:31;;;;;;;;;26.00;25.00;;;;;23.09;49.46;100463.40;112142;1262;21002;-40
2023/06/17 03:10:58;;;;;;;;;28.00;25.00;;;;;23.08;49.57;100465.08;112244;1247;21872;-39
2023/06/17 03:13:26;;;;;;;;;27.00;26.67;;;;;23.08;49.53;100464.83;112149;1263;19963;-39
2023/06/17 03:15:54;;;;;;;;;26.00;24.50;;;;;23.07;49.48;100463.64;112285;1263;20748;-40
2023/06/17 03:18:22;;;;;;;;;32.00;30.00;;;;;23.07;49.59;100464.73;112073;1263;21481;-39
2023/06/17 03:20:49;;;;;;;;;25.50;25.00;;;;;23.06;49.44;100465.31;112190;1247;20168;-43
2023/06/17 03:23:17;;;;;;;;;28.00;28.00;;;;;23.08;49.47;100465.58;112043;1263;22044;-39
2023/06/17 03:25:45;;;;;;;;;32.00;29.00;;;;;23.07;49.55;100464.15;112149;1248;20122;-39
2023/06/17 03:28:12;;;;;;;;;23.00;22.00;;;;;23.06;49.51;100455.89;112253;1263;20292;-39
2023/06/17 03:30:40;;;;;;;;;32.00;30.00;;;;;23.08;49.69;100458.98;112155;1262;20940;-39
2023/06/17 03:33:08;;;;;;;;;26.00;26.00;;;;;23.07;49.59;100458.94;112247;1263;21393;-39
2023/06/17 03:35:35;;;;;;;;;29.00;26.50;;;;;23.06;49.53;100456.27;112140;1263;18946;-39
2023/06/17 03:38:03;;;;;;;;;29.00;22.33;;;;;23.07;49.70;100459.05;112252;1248;19597;-39
2023/06/17 03:40:30;;;;;;;;;28.50;23.00;;;;;23.07;49.60;100458.38;112079;1263;21598;-39
2023/06/17 03:42:58;;;;;;;;;29.00;29.00;;;;;23.06;49.62;100457.66;112253;1248;19917;-39
2023/06/17 03:45:25;;;;;;;;;29.50;28.00;;;;;23.06;49.63;100454.25;112133;1263;21018;-39
2023/06/17 03:47:53;;;;;;;;;29.00;28.00;;;;;23.07;49.73;100458.13;112208;1248;20468;-39
2023/06/17 03:50:20;;;;;;;;;28.00;26.00;;;;;23.06;49.84;100452.77;112105;1248;18793;-39
2023/06/17 03:52:47;;;;;;;;;27.67;26.67;;;;;23.06;50.04;100451.42;112119;1257;21058;-39
2023/06/17 03:55:16;;;;;;;;;28.33;24.67;;;;;23.07;49.88;100456.33;112106;1263;22630;-39
2023/06/17 03:57:43;;;;;;;;;32.00;29.00;;;;;23.07;49.87;100456.36;112224;1263;19959;-39
2023/06/17 04:00:11;;;;;;;;;29.00;25.00;;;;;23.06;49.92;100453.19;112134;1263;20858;-39
2023/06/17 04:02:39;;;;;;;;;26.00;25.00;;;;;23.07;49.98;100459.05;112227;1263;21718;-39
2023/06/17 04:05:06;;;;;;;;;30.50;28.00;;;;;23.07;50.11;100461.29;112074;1263;19007;-39
2023/06/17 04:07:34;;;;;;;;;30.00;28.67;;;;;23.07;50.05;100468.55;112214;1263;19921;-39
2023/06/17 04:10:03;;;;;;;;;26.00;26.00;;;;;23.08;50.17;100473.20;112069;1263;20306;-39
2023/06/17 04:12:30;;;;;;;;;28.00;26.00;;;;;23.08;50.22;100476.48;112132;1262;18698;-40
2023/06/17 04:14:58;;;;;;;;;27.00;25.00;;;;;23.07;50.20;100472.92;112240;1262;20803;-40
2023/06/17 04:17:25;;;;;;;;;25.00;25.00;;;;;23.07;50.22;100475.67;112134;1263;20449;-40
2023/06/17 04:19:54;;;;;;;;;31.33;28.00;;;;;23.07;50.18;100478.56;112245;1263;19897;-39
2023/06/17 04:22:22;;;;;;;;;32.50;29.00;;;;;23.07;50.17;100481.09;112037;1247;20926;-39
2023/06/17 04:24:55;;;;;;;;;24.00;21.50;;;;;23.06;50.27;100483.73;112182;1262;20127;-41
2023/06/17 04:27:23;;;;;;;;;30.00;29.00;;;;;23.06;50.25;100483.17;112273;1262;19946;-41
2023/06/17 04:29:50;;;;;;;;;29.00;25.50;;;;;23.07;50.04;100483.31;112128;1263;20961;-39
2023/06/17 04:32:18;;;;;;;;;32.00;28.00;;;;;23.06;50.16;100490.12;112263;1248;21532;-39
2023/06/17 04:34:47;;;;;;;;;28.00;25.50;;;;;23.07;50.29;100485.66;112095;1263;18747;-39
2023/06/17 04:37:15;;;;;;;;;26.00;24.50;;;;;23.06;50.32;100481.54;112152;1263;20790;-39
2023/06/17 04:39:42;;;;;;;;;28.50;25.50;;;;;23.07;50.34;100482.95;112125;1263;20343;-39
2023/06/17 04:42:10;;;;;;;;;28.00;26.00;;;;;23.07;50.47;100483.79;112132;1263;20157;-40
2023/06/17 04:44:38;;;;;;;;;25.00;25.00;;;;;23.07;50.45;100477.72;112179;1247;22128;-39
2023/06/17 04:47:06;;;;;;;;;29.00;26.00;;;;;23.08;50.43;100480.09;112139;1247;19992;-39
2023/06/17 04:49:38;;;;;;;;;38.00;32.00;;;;;23.08;50.45;100476.60;112235;1254;20028;-39
2023/06/17 04:52:06;;;;;;;;;22.00;21.00;;;;;23.09;50.30;100476.60;112146;1263;19598;-39
2023/06/17 04:54:34;;;;;;;;;23.00;22.00;;;;;23.10;50.52;100472.44;112258;1262;20594;-40
2023/06/17 04:57:01;;;;;;;;;26.00;23.00;;;;;23.11;50.57;100474.42;112084;1263;19935;-40
2023/06/17 04:59:29;;;;;;;;;28.67;28.00;;;;;23.11;50.71;100472.61;112189;1263;19748;-39
2023/06/17 05:01:56;;;;;;;;;29.50;29.00;;;;;23.01;51.20;100473.80;112067;1262;21755;-39
2023/06/17 05:04:24;;;;;;;;;40.00;32.00;;;;;22.90;51.78;100473.25;112191;1263;20115;-39
2023/06/17 05:06:51;;;;;;;;;38.00;35.00;;;;;22.90;51.87;100476.39;112098;1263;19846;-39
2023/06/17 05:09:19;;;;;;;;;34.00;32.00;;;;;22.75;52.53;100479.06;112170;1263;20382;-39
2023/06/17 05:11:46;;;;;;;;;42.00;35.00;;;;;22.69;52.88;100480.77;112062;1263;18595;-39
2023/06/17 05:14:14;;;;;;;;;39.00;38.00;;;;;22.60;53.42;100480.52;112175;1263;21968;-39
2023/06/17 05:16:41;;;;;;;;;40.50;35.00;;;;;22.62;53.33;100480.70;112096;1263;21453;-39
2023/06/17 05:19:09;;;;;;;;;38.67;33.67;;;;;22.51;53.95;100477.73;112202;1263;20134;-39
2023/06/17 05:21:36;;;;;;;;;38.00;35.00;;;;;22.56;53.90;100482.30;112081;1263;19759;-39
2023/06/17 05:24:04;;;;;;;;;39.00;38.50;;;;;22.47;54.18;100481.69;112175;1262;21646;-39
2023/06/17 05:26:31;;;;;;;;;35.50;33.50;;;;;22.48;54.27;100477.38;112092;1262;18850;-39
2023/06/17 05:28:58;;;;;;;;;32.00;29.00;;;;;22.52;54.23;100476.39;112203;1263;21110;-39
2023/06/17 05:31:26;;;;;;;;;38.50;34.00;;;;;22.59;54.17;100471.65;112109;1263;21731;-40
2023/06/17 05:33:53;;;;;;;;;31.00;31.00;;;;;22.64;54.05;100471.82;112189;1263;20282;-39
2023/06/17 05:36:21;;;;;;;;;34.00;28.67;;;;;22.65;54.23;100465.31;112153;1247;19603;-38
2023/06/17 05:38:48;;;;;;;;;31.00;31.00;;;;;22.73;53.83;100462.73;112247;1247;21848;-39
2023/06/17 05:41:16;;;;;;;;;31.00;28.00;;;;;22.73;53.89;100456.68;112105;1263;21097;-40
2023/06/17 05:43:43;;;;;;;;;28.00;27.00;;;;;22.74;54.07;100457.32;112221;1263;19444;-41
2023/06/17 05:46:11;;;;;;;;;29.50;28.00;;;;;22.80;53.88;100455.02;112136;1263;20205;-40
2023/06/17 05:48:38;;;;;;;;;30.00;28.50;;;;;22.74;54.23;100450.80;112188;1263;21336;-40
2023/06/17 05:51:06;;;;;;;;;31.50;30.00;;;;;22.75;54.47;100448.66;112144;1263;21082;-40
2023/06/17 05:53:33;;;;;;;;;32.50;29.50;;;;;22.64;54.81;100444.20;112236;1263;20131;-39
2023/06/17 05:56:01;;;;;;;;;37.00;31.00;;;;;22.76;54.78;100444.73;112150;1263;19081;-40
2023/06/17 05:58:28;;;;;;;;;31.50;31.00;;;;;22.82;54.58;100448.09;112236;1262;20760;-40
2023/06/17 06:00:56;;;;;;;;;33.00;29.00;;;;;22.77;54.78;100450.38;112103;1263;20454;-39
2023/06/17 06:03:24;;;;;;;;;32.00;30.50;;;;;22.62;55.01;100452.97;112200;1263;20176;-38
2023/06/17 06:05:51;;;;;;;;;33.50;31.00;;;;;22.60;54.97;100449.91;112114;1263;20775;-38
2023/06/17 06:08:18;;;;;;;;;31.50;30.00;;;;;22.57;54.87;100453.25;112202;1263;21845;-37
2023/06/17 06:10:46;;;;;;;;;33.00;31.00;;;;;22.58;54.74;100452.27;112106;1247;20224;-38
2023/06/17 06:13:13;;;;;;;;;31.00;30.00;;;;;22.59;54.86;100450.29;112200;1263;20946;-38
2023/06/17 06:15:41;;;;;;;;;26.00;25.00;;;;;22.63;54.60;100446.04;112104;1263;21497;-37
2023/06/17 06:18:08;;;;;;;;;29.33;28.67;;;;;22.65;54.44;100445.73;112191;1262;20178;-37
2023/06/17 06:20:36;;;;;;;;;35.00;32.00;;;;;22.68;54.31;100446.71;112094;1263;19656;-39
2023/06/17 06:23:03;;;;;;;;;33.00;31.00;;;;;22.58;54.56;100444.74;112232;1263;21810;-38
2023/06/17 06:25:31;;;;;;;;;32.00;31.00;;;;;22.61;54.41;100450.02;112109;1263;19864;-38
2023/06/17 06:27:59;;;;;;;;;28.67;28.00;;;;;22.64;54.26;100445.05;112247;1263;21895;-37
2023/06/17 06:30:26;;;;;;;;;31.00;28.00;;;;;22.75;54.11;100443.00;112077;1263;21713;-38
2023/06/17 06:32:54;;;;;;;;;32.00;27.00;;;;;22.86;53.84;100444.08;112171;1247;20272;-39
2023/06/17 06:35:21;;;;;;;;;34.00;32.00;;;;;22.86;53.65;100441.69;112095;1263;21416;-39
2023/06/17 06:37:49;;;;;;;;;37.50;35.50;;;;;22.77;54.04;100444.48;112180;1263;21424;-37
2023/06/17 06:40:16;;;;;;;;;37.00;34.00;;;;;22.57;54.42;100445.03;112081;1263;19905;-38
2023/06/17 06:42:44;;;;;;;;;34.33;33.00;;;;;22.55;54.67;100444.73;112151;1262;20914;-38
2023/06/17 06:45:11;;;;;;;;;35.00;31.50;;;;;22.58;54.54;100446.39;112103;1263;20107;-37
2023/06/17 06:47:39;;;;;;;;;36.00;33.50;;;;;22.74;54.42;100442.34;112256;1262;20198;-37
2023/06/17 06:50:06;;;;;;;;;32.00;30.50;;;;;22.81;54.41;100442.71;111951;1263;21401;-37
2023/06/17 06:52:33;;;;;;;;;59.00;46.00;;;;;22.89;54.55;100442.84;112214;1247;20320;-36
2023/06/17 06:55:01;;;;;;;;;74.50;57.50;;;;;22.83;54.67;100448.23;112067;1255;19038;-38
2023/06/17 06:57:28;;;;;;;;;74.00;57.50;;;;;22.84;55.14;100445.77;112181;1263;19780;-38
2023/06/17 06:59:56;;;;;;;;;81.00;62.00;;;;;22.87;55.00;100440.67;112136;1263;20316;-38
2023/06/17 07:02:23;;;;;;;;;87.67;66.67;;;;;22.88;55.11;100445.31;112244;1247;19979;-39
2023/06/17 07:04:51;;;;;;;;;79.33;63.33;;;;;22.92;55.14;100444.59;112116;1254;20737;-37
2023/06/17 07:07:19;;;;;;;;;65.33;54.33;;;;;22.95;55.39;100443.01;112177;1248;22896;-37
2023/06/17 07:09:46;;;;;;;;;55.00;47.00;;;;;23.02;55.30;100443.55;112107;1262;18677;-37
2023/06/17 07:12:14;;;;;;;;;60.00;48.50;;;;;23.08;55.14;100444.88;112176;1263;19422;-37
2023/06/17 07:14:41;;;;;;;;;47.67;44.00;;;;;23.12;55.38;100447.05;112111;1248;21346;-37
2023/06/17 07:17:09;;;;;;;;;50.00;42.00;;;;;23.03;55.36;100451.54;112204;1263;18904;-37
2023/06/17 07:19:36;;;;;;;;;50.50;42.00;;;;;23.04;55.24;100448.77;112069;1263;20828;-37
2023/06/17 07:22:04;;;;;;;;;46.50;41.00;;;;;23.05;55.34;100452.04;112171;1248;21712;-38
2023/06/17 07:24:31;;;;;;;;;47.50;42.00;;;;;23.07;55.48;100453.77;112075;1247;20004;-36
2023/06/17 07:26:59;;;;;;;;;56.00;45.00;;;;;23.11;55.37;100453.95;112218;1247;19830;-38
2023/06/17 07:29:26;;;;;;;;;48.00;43.00;;;;;23.20;55.41;100455.60;112132;1247;21736;-38
2023/06/17 07:31:54;;;;;;;;;45.50;42.00;;;;;23.28;55.35;100457.13;112215;1263;19979;-38
2023/06/17 07:34:22;;;;;;;;;39.50;36.00;;;;;23.35;55.01;100453.19;112068;1255;20864;-38
2023/06/17 07:36:52;;;;;;;;;42.67;37.33;;;;;23.36;54.90;100450.34;112185;1262;20342;-36
2023/06/17 07:39:20;;;;;;;;;46.00;42.00;;;;;23.42;54.61;100449.18;112164;1263;19906;-37
2023/06/17 07:41:47;;;;;;;;;46.67;42.67;;;;;23.41;54.56;100453.34;112177;1263;19560;-36
2023/06/17 07:44:15;;;;;;;;;47.00;42.00;;;;;23.43;54.47;100455.63;112136;1263;20681;-37
2023/06/17 07:46:42;;;;;;;;;43.00;40.00;;;;;23.51;54.15;100454.58;112064;1263;18937;-37
2023/06/17 07:49:09;;;;;;;;;42.00;39.67;;;;;23.64;53.78;100457.29;112158;1263;19771;-38
2023/06/17 07:51:37;;;;;;;;;44.00;41.00;;;;;23.55;54.03;100456.91;112026;1263;20301;-37
2023/06/17 07:54:05;;;;;;;;;40.00;39.00;;;;;23.59;53.91;100449.83;112124;1263;19867;-38
2023/06/17 07:56:32;;;;;;;;;41.00;36.00;;;;;23.70;53.80;100449.52;112249;1263;21136;-38
2023/06/17 07:59:00;;;;;;;;;36.00;34.00;;;;;23.78;53.61;100448.10;112149;1263;21471;-38
2023/06/17 08:01:28;;;;;;;;;38.50;36.00;;;;;23.85;53.75;100447.33;112222;1263;20257;-38
2023/06/17 08:03:55;;;;;;;;;41.00;37.50;;;;;23.94;53.59;100445.59;112112;1256;19459;-37
2023/06/17 08:06:23;;;;;;;;;40.00;35.33;;;;;23.98;53.52;100442.82;112269;1263;20137;-37
2023/06/17 08:08:51;;;;;;;;;41.67;36.33;;;;;23.86;53.60;100444.34;112136;1263;20587;-36
2023/06/17 08:11:18;;;;;;;;;36.00;32.00;;;;;23.87;53.72;100444.42;112184;1263;19443;-38
2023/06/17 08:13:46;;;;;;;;;38.00;37.00;;;;;23.88;53.71;100444.96;112099;1262;21822;-37
2023/06/17 08:16:13;;;;;;;;;39.50;36.50;;;;;23.92;53.72;100441.49;112234;1263;20215;-36
2023/06/17 08:18:41;;;;;;;;;43.00;38.00;;;;;23.99;53.92;100441.77;112129;1248;19807;-38
2023/06/17 08:21:08;;;;;;;;;41.50;38.00;;;;;24.08;53.87;100441.05;112250;1263;21675;-37
2023/06/17 08:23:36;;;;;;;;;35.00;35.00;;;;;24.08;53.78;100441.50;112266;1248;19149;-36
2023/06/17 08:26:03;;;;;;;;;34.00;33.33;;;;;23.95;52.57;100446.59;112257;1255;22144;-37
2023/06/17 08:28:31;;;;;;;;;30.67;29.67;;;;;23.82;51.74;100441.09;112119;1263;21343;-36
2023/06/17 08:30:58;;;;;;;;;36.50;33.50;;;;;23.82;51.14;100442.67;112233;1263;18560;-36
2023/06/17 08:33:26;;;;;;;;;32.50;30.00;;;;;23.82;50.54;100441.59;112097;1263;19721;-37
2023/06/17 08:35:54;;;;;;;;;33.00;30.00;;;;;23.89;49.96;100437.11;112195;1247;22688;-36
2023/06/17 08:38:21;;;;;;;;;31.00;29.00;;;;;24.04;49.86;100438.92;112080;1256;19900;-36
2023/06/17 08:40:49;;;;;;;;;33.00;28.00;;;;;24.11;50.02;100442.23;112208;1247;21118;-38
2023/06/17 08:43:17;;;;;;;;;30.00;29.33;;;;;24.15;49.44;100439.13;112055;1263;21448;-38
2023/06/17 08:45:44;;;;;;;;;34.67;33.00;;;;;24.12;48.99;100442.88;112161;1256;18834;-37
2023/06/17 08:48:12;;;;;;;;;28.67;28.00;;;;;24.00;48.62;100439.62;112083;1247;20764;-37
2023/06/17 08:50:39;;;;;;;;;26.00;26.00;;;;;24.00;48.52;100438.91;112171;1263;21447;-37
2023/06/17 08:53:07;;;;;;;;;28.00;27.00;;;;;24.07;48.38;100433.34;112022;1263;21166;-38
2023/06/17 08:55:34;;;;;;;;;32.00;31.00;;;;;24.14;48.58;100434.20;112139;1263;19683;-37
2023/06/17 08:58:02;;;;;;;;;36.00;34.00;;;;;24.10;48.83;100432.16;112064;1263;20334;-37
2023/06/17 09:00:29;;;;;;;;;47.00;41.00;;;;;24.02;49.21;100427.42;112178;1262;20131;-38
2023/06/17 09:02:57;;;;;;;;;39.00;34.00;;;;;24.13;49.64;100424.92;112082;1257;20409;-37
2023/06/17 09:05:24;;;;;;;;;26.00;24.00;;;;;24.19;49.23;100426.92;112176;1262;20103;-38
2023/06/17 09:07:52;;;;;;;;;27.00;26.00;;;;;24.16;48.29;100426.37;112082;1262;19986;-37
2023/06/17 09:10:19;;;;;;;;;25.33;24.00;;;;;24.12;47.53;100423.77;112172;1263;21105;-37
2023/06/17 09:12:47;;;;;;;;;23.33;21.33;;;;;24.17;47.12;100420.64;112032;1263;20425;-37
2023/06/17 09:15:14;;;;;;;;;27.00;25.00;;;;;24.26;47.12;100420.65;112160;1262;18907;-37
2023/06/17 09:17:42;;;;;;;;;23.50;23.00;;;;;24.35;47.02;100426.08;112059;1247;19774;-37
2023/06/17 09:20:10;;;;;;;;;28.00;24.33;;;;;24.32;46.64;100423.91;112192;1263;20525;-37
2023/06/17 09:22:37;;;;;;;;;24.33;23.00;;;;;24.25;46.10;100424.83;112207;1254;19948;-37
2023/06/17 09:25:05;;;;;;;;;23.00;21.33;;;;;24.19;45.45;100418.71;112138;1247;21830;-38
2023/06/17 09:27:32;;;;;;;;;23.00;21.00;;;;;24.22;44.92;100416.31;112164;1263;21808;-38
2023/06/17 09:30:00;;;;;;;;;22.00;19.50;;;;;24.21;44.98;100418.71;112178;1263;19979;-39
2023/06/17 09:32:27;;;;;;;;;20.00;19.00;;;;;24.22;44.78;100416.48;112104;1262;19421;-39
2023/06/17 09:34:55;;;;;;;;;30.33;27.00;;;;;24.21;44.35;100414.33;112079;1257;20381;-37
2023/06/17 09:37:23;;;;;;;;;27.00;24.00;;;;;24.26;44.43;100409.41;112242;1263;19023;-37
2023/06/17 09:39:50;;;;;;;;;21.00;20.00;;;;;24.41;44.40;100413.11;112113;1263;21893;-36
2023/06/17 09:42:18;;;;;;;;;20.00;20.00;;;;;24.45;44.20;100405.80;112269;1247;21734;-37
2023/06/17 09:44:46;;;;;;;;;19.50;19.50;;;;;24.39;43.96;100407.23;112118;1263;21061;-39
2023/06/17 09:47:14;;;;;;;;;19.00;19.00;;;;;24.47;43.95;100405.59;112132;1263;20731;-39
2023/06/17 09:49:43;;;;;;;;;19.00;19.00;;;;;24.53;43.94;100405.38;112076;1263;21698;-39
2023/06/17 09:52:11;;;;;;;;;19.00;17.00;;;;;24.54;43.67;100403.91;112104;1255;18926;-39
2023/06/17 09:54:41;;;;;;;;;19.00;19.00;;;;;24.52;43.88;100400.50;112234;1263;20755;-38
2023/06/17 09:57:09;;;;;;;;;24.00;18.00;;;;;24.59;44.26;100398.43;112240;1263;20454;-39
2023/06/17 09:59:37;;;;;;;;;21.00;20.00;;;;;24.60;44.57;100399.61;112045;1262;18928;-37
2023/06/17 10:02:05;;;;;;;;;20.67;20.33;;;;;24.65;44.74;100403.95;112121;1263;21905;-38
2023/06/17 10:04:32;;;;;;;;;17.33;17.00;;;;;24.63;45.36;100401.88;112168;1262;21765;-36
2023/06/17 10:07:00;;;;;;;;;18.50;18.50;;;;;24.65;45.82;100406.90;112178;1263;20087;-36
2023/06/17 10:09:27;;;;;;;;;20.50;20.00;;;;;24.70;45.67;100398.77;112103;1263;20993;-36
2023/06/17 10:11:55;;;;;;;;;24.00;23.00;;;;;24.58;46.43;100402.22;112128;1247;21552;-37
2023/06/17 10:14:22;;;;;;;;;20.00;18.00;;;;;24.54;47.21;100408.16;112108;1263;19967;-36
2023/06/17 10:16:50;;;;;;;;;17.00;16.50;;;;;24.51;47.13;100415.21;112139;1263;21127;-36
2023/06/17 10:19:17;;;;;;;;;17.00;17.00;;;;;24.52;47.12;100415.84;112129;1247;21491;-36
2023/06/17 10:21:45;;;;;;;;;24.00;21.00;;;;;24.48;46.91;100409.93;112159;1263;19154;-37
2023/06/17 10:24:12;;;;;;;;;23.00;21.00;;;;;24.50;47.09;100409.43;112326;1263;19466;-37
2023/06/17 10:26:40;;;;;;;;;19.50;17.50;;;;;24.47;47.09;100411.86;112160;1263;21470;-36
2023/06/17 10:29:10;;;;;;;;;24.00;23.00;;;;;24.45;47.39;100412.30;112264;1263;19858;-37
2023/06/17 10:31:38;;;;;;;;;23.00;21.00;;;;;24.45;47.44;100415.38;112195;1263;20776;-37
2023/06/17 10:34:06;;;;;;;;;30.50;25.00;;;;;24.40;47.46;100417.89;112092;1262;21537;-37
2023/06/17 10:36:35;;;;;;;;;26.00;24.50;;;;;24.34;47.05;100415.20;112207;1263;20058;-37
2023/06/17 10:39:03;;;;;;;;;29.00;27.00;;;;;24.32;46.57;100418.81;112144;1263;21136;-37
2023/06/17 10:41:30;;;;;;;;;24.00;21.00;;;;;24.30;46.29;100412.70;112111;1262;21737;-37
2023/06/17 10:43:58;;;;;;;;;23.00;21.00;;;;;24.28;46.37;100411.39;112268;1263;20042;-37
2023/06/17 10:46:26;;;;;;;;;24.00;23.00;;;;;24.29;45.79;100414.38;112123;1263;20970;-37
2023/06/17 10:48:53;;;;;;;;;26.00;24.00;;;;;24.25;45.60;100421.48;112226;1263;20114;-37
2023/06/17 10:51:23;;;;;;;;;23.00;21.00;;;;;24.21;45.66;100426.05;112115;1263;20281;-37
2023/06/17 10:53:51;;;;;;;;;23.50;20.00;;;;;24.16;45.60;100430.54;112127;1263;22393;-37
2023/06/17 10:56:18;;;;;;;;;23.00;20.00;;;;;24.12;45.82;100433.46;112229;1256;20196;-37
2023/06/17 10:58:46;;;;;;;;;24.00;22.00;;;;;24.13;45.93;100431.21;112130;1247;19017;-36
2023/06/17 11:01:13;;;;;;;;;28.00;25.00;;;;;24.12;46.03;100433.27;112200;1262;20256;-37
2023/06/17 11:03:41;;;;;;;;;33.00;30.00;;;;;24.12;46.16;100433.06;112120;1263;20585;-37